sensor_id;sensor_type;location;lat;lon;timestamp;pressure;altitude;pressure_sealevel;temperature;humidity
36380;BME280;22411;53.016;18.632;2024-03-07T00:01:55;101450.34;;;-1.14;100.00
36380;BME280;22411;53.016;18.632;2024-03-07T00:04:21;101439.34;;;-1.20;100.00
36380;BME280;22411;53.016;18.632;2024-03-07T00:06:46;101443.59;;;-1.24;100.00
36380;BME280;22411;53.016;18.632;2024-03-07T00:09:14;101444.50;;;-1.31;100.00
36380;BME280;22411;53.016;18.632;2024-03-07T00:11:40;101449.53;;;-1.25;100.00
36380;BME280;22411;53.016;18.632;2024-03-07T00:14:06;101444.47;;;-1.28;100.00
36380;BME280;22411;53.016;18.632;2024-03-07T00:16:33;101441.91;;;-1.23;100.00
36380;BME280;22411;53.016;18.632;2024-03-07T00:19:00;101443.56;;;-1.19;100.00
36380;BME280;22411;53.016;18.632;2024-03-07T00:21:26;101440.22;;;-1.26;100.00
36380;BME280;22411;53.016;18.632;2024-03-07T00:23:51;101443.56;;;-1.19;100.00
36380;BME280;22411;53.016;18.632;2024-03-07T00:26:19;101438.50;;;-1.19;100.00
36380;BME280;22411;53.016;18.632;2024-03-07T00:28:45;101433.44;;;-1.25;100.00
36380;BME280;22411;53.016;18.632;2024-03-07T00:31:11;101431.75;;;-1.28;100.00
36380;BME280;22411;53.016;18.632;2024-03-07T00:33:36;101438.50;;;-1.24;100.00
36380;BME280;22411;53.016;18.632;2024-03-07T00:36:02;101430.91;;;-1.30;100.00
36380;BME280;22411;53.016;18.632;2024-03-07T00:38:28;101435.13;;;-1.26;100.00
36380;BME280;22411;53.016;18.632;2024-03-07T00:40:54;101443.63;;;-1.33;100.00
36380;BME280;22411;53.016;18.632;2024-03-07T00:43:19;101436.03;;;-1.38;100.00
36380;BME280;22411;53.016;18.632;2024-03-07T00:45:45;101430.94;;;-1.38;100.00
36380;BME280;22411;53.016;18.632;2024-03-07T00:48:16;101434.38;;;-1.46;100.00
36380;BME280;22411;53.016;18.632;2024-03-07T00:50:45;101428.44;;;-1.50;100.00
36380;BME280;22411;53.016;18.632;2024-03-07T00:53:11;101425.94;;;-1.56;100.00
36380;BME280;22411;53.016;18.632;2024-03-07T00:55:36;101426.78;;;-1.59;100.00
36380;BME280;22411;53.016;18.632;2024-03-07T00:58:04;101424.22;;;-1.59;100.00
36380;BME280;22411;53.016;18.632;2024-03-07T01:00:30;101427.69;;;-1.67;100.00
36380;BME280;22411;53.016;18.632;2024-03-07T01:02:55;101422.59;;;-1.70;100.00
36380;BME280;22411;53.016;18.632;2024-03-07T01:05:22;101425.13;;;-1.69;100.00
36380;BME280;22411;53.016;18.632;2024-03-07T01:07:48;101425.16;;;-1.72;100.00
36380;BME280;22411;53.016;18.632;2024-03-07T01:10:15;101423.47;;;-1.77;100.00
36380;BME280;22411;53.016;18.632;2024-03-07T01:12:40;101424.31;;;-1.80;100.00
36380;BME280;22411;53.016;18.632;2024-03-07T01:15:08;101427.72;;;-1.82;100.00
36380;BME280;22411;53.016;18.632;2024-03-07T01:17:35;101418.41;;;-1.83;100.00
36380;BME280;22411;53.016;18.632;2024-03-07T01:20:01;101423.47;;;-1.80;100.00
36380;BME280;22411;53.016;18.632;2024-03-07T01:22:27;101426.03;;;-1.83;100.00
36380;BME280;22411;53.016;18.632;2024-03-07T01:24:54;101426.03;;;-1.82;100.00
36380;BME280;22411;53.016;18.632;2024-03-07T01:27:20;101419.22;;;-1.80;100.00
36380;BME280;22411;53.016;18.632;2024-03-07T01:29:46;101426.84;;;-1.74;100.00
36380;BME280;22411;53.016;18.632;2024-03-07T01:32:11;101421.78;;;-1.74;100.00
36380;BME280;22411;53.016;18.632;2024-03-07T01:34:37;101418.38;;;-1.77;100.00
36380;BME280;22411;53.016;18.632;2024-03-07T01:37:02;101423.44;;;-1.70;100.00
36380;BME280;22411;53.016;18.632;2024-03-07T01:39:28;101421.75;;;-1.72;100.00
36380;BME280;22411;53.016;18.632;2024-03-07T01:41:54;101422.59;;;-1.72;100.00
36380;BME280;22411;53.016;18.632;2024-03-07T01:44:20;101417.53;;;-1.78;100.00
36380;BME280;22411;53.016;18.632;2024-03-07T01:46:45;101420.06;;;-1.76;100.00
36380;BME280;22411;53.016;18.632;2024-03-07T01:49:12;101422.59;;;-1.75;100.00
36380;BME280;22411;53.016;18.632;2024-03-07T01:51:37;101421.75;;;-1.72;100.00
36380;BME280;22411;53.016;18.632;2024-03-07T01:54:07;101417.53;;;-1.72;100.00
36380;BME280;22411;53.016;18.632;2024-03-07T01:56:35;101411.59;;;-1.74;100.00
36380;BME280;22411;53.016;18.632;2024-03-07T01:59:03;101410.75;;;-1.73;100.00
36380;BME280;22411;53.016;18.632;2024-03-07T02:01:31;101408.22;;;-1.76;100.00
36380;BME280;22411;53.016;18.632;2024-03-07T02:03:57;101407.34;;;-1.75;100.00
36380;BME280;22411;53.016;18.632;2024-03-07T02:06:23;101403.97;;;-1.75;100.00
36380;BME280;22411;53.016;18.632;2024-03-07T02:08:49;101411.59;;;-1.77;100.00
36380;BME280;22411;53.016;18.632;2024-03-07T02:11:15;101398.88;;;-1.71;100.00
36380;BME280;22411;53.016;18.632;2024-03-07T02:13:41;101401.41;;;-1.71;100.00
36380;BME280;22411;53.016;18.632;2024-03-07T02:16:06;101403.09;;;-1.71;100.00
36380;BME280;22411;53.016;18.632;2024-03-07T02:18:34;101395.50;;;-1.77;100.00
36380;BME280;22411;53.016;18.632;2024-03-07T02:21:00;101399.72;;;-1.79;100.00
36380;BME280;22411;53.016;18.632;2024-03-07T02:23:26;101396.38;;;-1.81;100.00
36380;BME280;22411;53.016;18.632;2024-03-07T02:25:53;101397.22;;;-1.87;100.00
36380;BME280;22411;53.016;18.632;2024-03-07T02:28:19;101398.09;;;-1.91;100.00
36380;BME280;22411;53.016;18.632;2024-03-07T02:30:44;101399.78;;;-1.96;100.00
36380;BME280;22411;53.016;18.632;2024-03-07T02:33:11;101398.94;;;-1.95;100.00
36380;BME280;22411;53.016;18.632;2024-03-07T02:35:37;101402.34;;;-1.99;100.00
36380;BME280;22411;53.016;18.632;2024-03-07T02:38:04;101399.84;;;-2.05;100.00
36380;BME280;22411;53.016;18.632;2024-03-07T02:40:34;101402.38;;;-2.12;100.00
36380;BME280;22411;53.016;18.632;2024-03-07T02:43:00;101407.44;;;-2.12;100.00
36380;BME280;22411;53.016;18.632;2024-03-07T02:45:27;101402.41;;;-2.16;100.00
36380;BME280;22411;53.016;18.632;2024-03-07T02:47:52;101401.53;;;-2.15;100.00
36380;BME280;22411;53.016;18.632;2024-03-07T02:50:19;101407.44;;;-2.08;100.00
36380;BME280;22411;53.016;18.632;2024-03-07T02:52:45;101407.44;;;-2.04;100.00
36380;BME280;22411;53.016;18.632;2024-03-07T02:55:11;101407.44;;;-2.04;100.00
36380;BME280;22411;53.016;18.632;2024-03-07T02:57:37;101398.94;;;-1.97;100.00
36380;BME280;22411;53.016;18.632;2024-03-07T03:00:03;101409.94;;;-1.96;100.00
36380;BME280;22411;53.016;18.632;2024-03-07T03:02:39;101408.28;;;-1.97;100.00
36380;BME280;22411;53.016;18.632;2024-03-07T03:05:05;101406.56;;;-1.95;100.00
36380;BME280;22411;53.016;18.632;2024-03-07T03:07:35;101409.97;;;-1.95;100.00
36380;BME280;22411;53.016;18.632;2024-03-07T03:10:01;101405.72;;;-1.96;100.00
36380;BME280;22411;53.016;18.632;2024-03-07T03:12:31;101404.06;;;-2.00;100.00
36380;BME280;22411;53.016;18.632;2024-03-07T03:14:57;101404.91;;;-2.04;100.00
36380;BME280;22411;53.016;18.632;2024-03-07T03:17:22;101398.97;;;-2.06;100.00
36380;BME280;22411;53.016;18.632;2024-03-07T03:19:48;101408.28;;;-2.03;100.00
36380;BME280;22411;53.016;18.632;2024-03-07T03:22:15;101408.28;;;-2.08;100.00
36380;BME280;22411;53.016;18.632;2024-03-07T03:24:41;101403.22;;;-2.09;100.00
36380;BME280;22411;53.016;18.632;2024-03-07T03:27:06;101406.59;;;-2.09;100.00
36380;BME280;22411;53.016;18.632;2024-03-07T03:29:33;101405.75;;;-2.08;100.00
36380;BME280;22411;53.016;18.632;2024-03-07T03:31:59;101395.59;;;-2.14;100.00
36380;BME280;22411;53.016;18.632;2024-03-07T03:34:25;101400.69;;;-2.19;100.00
36380;BME280;22411;53.016;18.632;2024-03-07T03:36:52;101394.75;;;-2.18;100.00
36380;BME280;22411;53.016;18.632;2024-03-07T03:39:17;101399.84;;;-2.18;100.00
36380;BME280;22411;53.016;18.632;2024-03-07T03:41:46;101400.69;;;-2.17;100.00
36380;BME280;22411;53.016;18.632;2024-03-07T03:44:12;101408.31;;;-2.22;100.00
36380;BME280;22411;53.016;18.632;2024-03-07T03:46:38;101394.78;;;-2.25;100.00
36380;BME280;22411;53.016;18.632;2024-03-07T03:49:03;101408.31;;;-2.28;100.00
36380;BME280;22411;53.016;18.632;2024-03-07T03:51:31;101404.94;;;-2.33;100.00
36380;BME280;22411;53.016;18.632;2024-03-07T03:53:57;101409.19;;;-2.37;100.00
36380;BME280;22411;53.016;18.632;2024-03-07T03:56:23;101404.09;;;-2.43;100.00
36380;BME280;22411;53.016;18.632;2024-03-07T03:58:50;101408.38;;;-2.48;100.00
36380;BME280;22411;53.016;18.632;2024-03-07T04:01:16;101406.63;;;-2.53;100.00
36380;BME280;22411;53.016;18.632;2024-03-07T04:03:41;101410.03;;;-2.45;100.00
36380;BME280;22411;53.016;18.632;2024-03-07T04:06:08;101409.19;;;-2.49;100.00
36380;BME280;22411;53.016;18.632;2024-03-07T04:08:33;101410.88;;;-2.49;100.00
36380;BME280;22411;53.016;18.632;2024-03-07T04:11:02;101412.56;;;-2.48;100.00
36380;BME280;22411;53.016;18.632;2024-03-07T04:13:29;101410.03;;;-2.47;100.00
36380;BME280;22411;53.016;18.632;2024-03-07T04:15:56;101412.56;;;-2.45;100.00
36380;BME280;22411;53.016;18.632;2024-03-07T04:18:22;101411.72;;;-2.53;100.00
36380;BME280;22411;53.016;18.632;2024-03-07T04:20:48;101415.13;;;-2.51;100.00
36380;BME280;22411;53.016;18.632;2024-03-07T04:23:13;101416.81;;;-2.55;100.00
36380;BME280;22411;53.016;18.632;2024-03-07T04:25:39;101420.19;;;-2.48;100.00
36380;BME280;22411;53.016;18.632;2024-03-07T04:28:05;101420.19;;;-2.50;100.00
36380;BME280;22411;53.016;18.632;2024-03-07T04:30:31;101414.28;;;-2.46;100.00
36380;BME280;22411;53.016;18.632;2024-03-07T04:32:56;101421.88;;;-2.44;100.00
36380;BME280;22411;53.016;18.632;2024-03-07T04:35:24;101420.19;;;-2.45;100.00
36380;BME280;22411;53.016;18.632;2024-03-07T04:37:49;101417.66;;;-2.44;100.00
36380;BME280;22411;53.016;18.632;2024-03-07T04:40:16;101418.50;;;-2.46;100.00
36380;BME280;22411;53.016;18.632;2024-03-07T04:42:46;101415.09;;;-2.54;100.00
36380;BME280;22411;53.016;18.632;2024-03-07T04:45:13;101418.50;;;-2.49;100.00
36380;BME280;22411;53.016;18.632;2024-03-07T04:47:40;101422.72;;;-2.48;100.00
36380;BME280;22411;53.016;18.632;2024-03-07T04:50:08;101421.88;;;-2.55;100.00
36380;BME280;22411;53.016;18.632;2024-03-07T04:52:39;101420.19;;;-2.62;100.00
36380;BME280;22411;53.016;18.632;2024-03-07T04:55:06;101417.66;;;-2.71;100.00
36380;BME280;22411;53.016;18.632;2024-03-07T04:57:39;101422.72;;;-2.79;100.00
36380;BME280;22411;53.016;18.632;2024-03-07T05:00:10;101426.09;;;-2.80;100.00
36380;BME280;22411;53.016;18.632;2024-03-07T05:02:40;101428.66;;;-2.77;100.00
36380;BME280;22411;53.016;18.632;2024-03-07T05:05:07;101423.59;;;-2.74;100.00
36380;BME280;22411;53.016;18.632;2024-03-07T05:07:33;101431.19;;;-2.68;100.00
36380;BME280;22411;53.016;18.632;2024-03-07T05:09:59;101427.78;;;-2.70;100.00
36380;BME280;22411;53.016;18.632;2024-03-07T05:12:25;101435.44;;;-2.68;100.00
36380;BME280;22411;53.016;18.632;2024-03-07T05:14:51;101438.78;;;-2.65;100.00
36380;BME280;22411;53.016;18.632;2024-03-07T05:17:17;101429.50;;;-2.64;100.00
36380;BME280;22411;53.016;18.632;2024-03-07T05:19:45;101429.50;;;-2.61;100.00
36380;BME280;22411;53.016;18.632;2024-03-07T05:22:11;101427.81;;;-2.60;100.00
36380;BME280;22411;53.016;18.632;2024-03-07T05:24:44;101429.50;;;-2.58;100.00
36380;BME280;22411;53.016;18.632;2024-03-07T05:27:10;101442.19;;;-2.61;100.00
36380;BME280;22411;53.016;18.632;2024-03-07T05:29:39;101438.78;;;-2.58;100.00
36380;BME280;22411;53.016;18.632;2024-03-07T05:32:20;101444.72;;;-2.49;100.00
36380;BME280;22411;53.016;18.632;2024-03-07T05:34:48;101443.03;;;-2.45;100.00
36380;BME280;22411;53.016;18.632;2024-03-07T05:37:13;101443.03;;;-2.45;100.00
36380;BME280;22411;53.016;18.632;2024-03-07T05:39:39;101448.97;;;-2.45;100.00
36380;BME280;22411;53.016;18.632;2024-03-07T05:42:05;101447.28;;;-2.50;100.00
36380;BME280;22411;53.016;18.632;2024-03-07T05:44:35;101443.03;;;-2.50;100.00
36380;BME280;22411;53.016;18.632;2024-03-07T05:47:01;101443.91;;;-2.46;100.00
36380;BME280;22411;53.016;18.632;2024-03-07T05:49:27;101445.59;;;-2.45;100.00
36380;BME280;22411;53.016;18.632;2024-03-07T05:51:52;101449.81;;;-2.44;100.00
36380;BME280;22411;53.016;18.632;2024-03-07T05:54:18;101448.13;;;-2.45;100.00
36380;BME280;22411;53.016;18.632;2024-03-07T05:56:44;101448.13;;;-2.45;100.00
36380;BME280;22411;53.016;18.632;2024-03-07T05:59:10;101454.03;;;-2.43;100.00
36380;BME280;22411;53.016;18.632;2024-03-07T06:01:36;101451.50;;;-2.45;100.00
36380;BME280;22411;53.016;18.632;2024-03-07T06:04:03;101451.50;;;-2.43;100.00
36380;BME280;22411;53.016;18.632;2024-03-07T06:06:33;101454.88;;;-2.40;100.00
36380;BME280;22411;53.016;18.632;2024-03-07T06:09:05;101457.44;;;-2.37;100.00
36380;BME280;22411;53.016;18.632;2024-03-07T06:11:37;101459.97;;;-2.29;100.00
36380;BME280;22411;53.016;18.632;2024-03-07T06:14:06;101458.28;;;-2.24;100.00
36380;BME280;22411;53.016;18.632;2024-03-07T06:16:37;101465.06;;;-2.20;100.00
36380;BME280;22411;53.016;18.632;2024-03-07T06:19:04;101459.94;;;-2.17;100.00
36380;BME280;22411;53.016;18.632;2024-03-07T06:21:30;101467.56;;;-2.07;100.00
36380;BME280;22411;53.016;18.632;2024-03-07T06:23:59;101459.94;;;-2.03;100.00
36380;BME280;22411;53.016;18.632;2024-03-07T06:26:32;101470.97;;;-1.95;100.00
36380;BME280;22411;53.016;18.632;2024-03-07T06:29:11;101471.78;;;-1.91;100.00
36380;BME280;22411;53.016;18.632;2024-03-07T06:31:37;101470.09;;;-1.85;100.00
36380;BME280;22411;53.016;18.632;2024-03-07T06:34:03;101467.53;;;-1.78;100.00
36380;BME280;22411;53.016;18.632;2024-03-07T06:36:29;101470.06;;;-1.74;100.00
36380;BME280;22411;53.016;18.632;2024-03-07T06:38:55;101475.13;;;-1.68;100.00
36380;BME280;22411;53.016;18.632;2024-03-07T06:41:21;101474.28;;;-1.62;100.00
36380;BME280;22411;53.016;18.632;2024-03-07T06:43:48;101479.34;;;-1.56;100.00
36380;BME280;22411;53.016;18.632;2024-03-07T06:46:15;101470.00;;;-1.52;100.00
36380;BME280;22411;53.016;18.632;2024-03-07T06:48:44;101470.81;;;-1.46;100.00
36380;BME280;22411;53.016;18.632;2024-03-07T06:51:10;101474.19;;;-1.39;100.00
36380;BME280;22411;53.016;18.632;2024-03-07T06:53:36;101477.53;;;-1.29;100.00
36380;BME280;22411;53.016;18.632;2024-03-07T06:56:02;101471.56;;;-1.19;100.00
36380;BME280;22411;53.016;18.632;2024-03-07T06:58:28;101481.72;;;-1.10;100.00
36380;BME280;22411;53.016;18.632;2024-03-07T07:00:54;101479.94;;;-0.99;100.00
36380;BME280;22411;53.016;18.632;2024-03-07T07:03:20;101474.81;;;-0.91;100.00
36380;BME280;22411;53.016;18.632;2024-03-07T07:05:48;101478.97;;;-0.78;100.00
36380;BME280;22411;53.016;18.632;2024-03-07T07:08:14;101480.63;;;-0.71;100.00
36380;BME280;22411;53.016;18.632;2024-03-07T07:10:40;101478.88;;;-0.63;100.00
36380;BME280;22411;53.016;18.632;2024-03-07T07:13:06;101486.44;;;-0.52;100.00
36380;BME280;22411;53.016;18.632;2024-03-07T07:15:32;101480.44;;;-0.45;100.00
36380;BME280;22411;53.016;18.632;2024-03-07T07:17:59;101476.16;;;-0.37;100.00
36380;BME280;22411;53.016;18.632;2024-03-07T07:20:24;101486.22;;;-0.24;100.00
36380;BME280;22411;53.016;18.632;2024-03-07T07:22:50;101482.75;;;-0.17;100.00
36380;BME280;22411;53.016;18.632;2024-03-07T07:25:19;101491.13;;;-0.03;100.00
36380;BME280;22411;53.016;18.632;2024-03-07T07:27:47;101485.91;;;0.09;100.00
36380;BME280;22411;53.016;18.632;2024-03-07T07:30:18;101487.53;;;0.19;100.00
36380;BME280;22411;53.016;18.632;2024-03-07T07:32:45;101486.53;;;0.31;100.00
36380;BME280;22411;53.016;18.632;2024-03-07T07:35:11;101489.06;;;0.37;100.00
36380;BME280;22411;53.016;18.632;2024-03-07T07:37:42;101490.59;;;0.50;100.00
36380;BME280;22411;53.016;18.632;2024-03-07T07:40:10;101487.91;;;0.64;100.00
36380;BME280;22411;53.016;18.632;2024-03-07T07:42:40;101479.28;;;0.71;100.00
36380;BME280;22411;53.016;18.632;2024-03-07T07:45:10;101491.84;;;0.88;100.00
36380;BME280;22411;53.016;18.632;2024-03-07T07:47:44;101491.69;;;0.99;100.00
36380;BME280;22411;53.016;18.632;2024-03-07T07:50:11;101486.53;;;1.03;100.00
36380;BME280;22411;53.016;18.632;2024-03-07T07:52:41;101491.53;;;1.13;100.00
36380;BME280;22411;53.016;18.632;2024-03-07T07:55:07;101487.28;;;1.10;100.00
36380;BME280;22411;53.016;18.632;2024-03-07T07:57:44;101488.84;;;1.22;100.00
36380;BME280;22411;53.016;18.632;2024-03-07T08:00:14;101489.50;;;1.35;100.00
36380;BME280;22411;53.016;18.632;2024-03-07T08:02:59;101493.50;;;1.54;100.00
36380;BME280;22411;53.016;18.632;2024-03-07T08:05:30;101485.63;;;1.66;100.00
36380;BME280;22411;53.016;18.632;2024-03-07T08:07:58;101483.63;;;1.83;100.00
36380;BME280;22411;53.016;18.632;2024-03-07T08:10:25;101486.22;;;1.82;100.00
36380;BME280;22411;53.016;18.632;2024-03-07T08:12:55;101489.44;;;1.93;100.00
36380;BME280;22411;53.016;18.632;2024-03-07T08:15:21;101484.09;;;2.07;100.00
36380;BME280;22411;53.016;18.632;2024-03-07T08:17:47;101487.34;;;2.15;100.00
36380;BME280;22411;53.016;18.632;2024-03-07T08:20:18;101481.16;;;2.28;100.00
36380;BME280;22411;53.016;18.632;2024-03-07T08:22:46;101480.88;;;2.42;100.00
36380;BME280;22411;53.016;18.632;2024-03-07T08:25:15;101475.50;;;2.56;100.00
36380;BME280;22411;53.016;18.632;2024-03-07T08:27:42;101478.75;;;2.64;100.00
36380;BME280;22411;53.016;18.632;2024-03-07T08:30:10;101484.66;;;2.66;100.00
36380;BME280;22411;53.016;18.632;2024-03-07T08:35:07;101480.97;;;2.81;100.00
36380;BME280;22411;53.016;18.632;2024-03-07T08:37:39;101482.59;;;2.83;100.00
36380;BME280;22411;53.016;18.632;2024-03-07T08:40:06;101479.28;;;2.80;100.00
36380;BME280;22411;53.016;18.632;2024-03-07T08:42:33;101480.97;;;2.79;100.00
36380;BME280;22411;53.016;18.632;2024-03-07T08:45:00;101480.03;;;2.83;100.00
36380;BME280;22411;53.016;18.632;2024-03-07T08:47:29;101483.25;;;2.93;100.00
36380;BME280;22411;53.016;18.632;2024-03-07T08:49:56;101482.47;;;2.91;100.00
36380;BME280;22411;53.016;18.632;2024-03-07T08:52:23;101475.28;;;3.07;100.00
36380;BME280;22411;53.016;18.632;2024-03-07T08:54:49;101482.06;;;3.09;100.00
36380;BME280;22411;53.016;18.632;2024-03-07T08:57:14;101472.41;;;3.21;100.00
36380;BME280;22411;53.016;18.632;2024-03-07T08:59:42;101474.81;;;3.28;100.00
36380;BME280;22411;53.016;18.632;2024-03-07T09:02:12;101478.06;;;3.35;100.00
36380;BME280;22411;53.016;18.632;2024-03-07T09:04:38;101477.03;;;3.44;100.00
36380;BME280;22411;53.016;18.632;2024-03-07T09:07:05;101467.97;;;3.64;100.00
36380;BME280;22411;53.016;18.632;2024-03-07T09:09:34;101475.41;;;3.75;100.00
36380;BME280;22411;53.016;18.632;2024-03-07T09:12:01;101479.84;;;4.03;98.55
36380;BME280;22411;53.016;18.632;2024-03-07T09:14:30;101480.19;;;4.53;96.36
36380;BME280;22411;53.016;18.632;2024-03-07T09:16:56;101486.47;;;5.58;85.47
36380;BME280;22411;53.016;18.632;2024-03-07T09:19:23;101487.69;;;6.96;68.08
36380;BME280;22411;53.016;18.632;2024-03-07T09:21:53;101479.19;;;8.00;55.76
36380;BME280;22411;53.016;18.632;2024-03-07T09:24:19;101490.47;;;8.59;51.65
36380;BME280;22411;53.016;18.632;2024-03-07T09:26:50;101490.84;;;9.08;48.71
36380;BME280;22411;53.016;18.632;2024-03-07T09:29:18;101483.84;;;9.10;48.93
36380;BME280;22411;53.016;18.632;2024-03-07T09:31:45;101490.75;;;9.28;50.38
36380;BME280;22411;53.016;18.632;2024-03-07T09:34:12;101492.84;;;9.01;49.32
36380;BME280;22411;53.016;18.632;2024-03-07T09:36:39;101488.63;;;8.81;52.52
36380;BME280;22411;53.016;18.632;2024-03-07T09:39:07;101490.25;;;8.45;53.30
36380;BME280;22411;53.016;18.632;2024-03-07T09:41:34;101489.03;;;8.12;53.96
36380;BME280;22411;53.016;18.632;2024-03-07T09:44:03;101488.59;;;8.44;54.66
36380;BME280;22411;53.016;18.632;2024-03-07T09:46:31;101494.19;;;8.91;52.09
36380;BME280;22411;53.016;18.632;2024-03-07T09:48:58;101487.28;;;9.47;50.51
36380;BME280;22411;53.016;18.632;2024-03-07T09:51:24;101494.09;;;9.30;49.93
36380;BME280;22411;53.016;18.632;2024-03-07T09:53:53;101489.31;;;9.40;48.90
36380;BME280;22411;53.016;18.632;2024-03-07T09:56:22;101492.31;;;9.84;47.10
36380;BME280;22411;53.016;18.632;2024-03-07T09:58:51;101486.78;;;9.92;46.29
36380;BME280;22411;53.016;18.632;2024-03-07T10:01:21;101488.28;;;9.79;47.18
36380;BME280;22411;53.016;18.632;2024-03-07T10:03:48;101489.81;;;9.65;46.16
36380;BME280;22411;53.016;18.632;2024-03-07T10:06:14;101485.31;;;9.69;47.40
36380;BME280;22411;53.016;18.632;2024-03-07T10:08:44;101484.78;;;10.14;46.13
36380;BME280;22411;53.016;18.632;2024-03-07T10:11:10;101487.94;;;10.70;43.35
36380;BME280;22411;53.016;18.632;2024-03-07T10:13:36;101487.03;;;10.71;42.62
36380;BME280;22411;53.016;18.632;2024-03-07T10:16:02;101481.56;;;10.60;43.78
36380;BME280;22411;53.016;18.632;2024-03-07T10:18:27;101491.66;;;10.82;42.42
36380;BME280;22411;53.016;18.632;2024-03-07T10:20:54;101490.03;;;10.95;42.07
36380;BME280;22411;53.016;18.632;2024-03-07T10:23:20;101480.34;;;11.14;40.44
36380;BME280;22411;53.016;18.632;2024-03-07T10:25:46;101480.22;;;11.32;41.41
36380;BME280;22411;53.016;18.632;2024-03-07T10:28:12;101484.59;;;11.31;41.58
36380;BME280;22411;53.016;18.632;2024-03-07T10:30:41;101482.03;;;10.99;42.19
36380;BME280;22411;53.016;18.632;2024-03-07T10:33:09;101476.00;;;10.83;40.91
36380;BME280;22411;53.016;18.632;2024-03-07T10:35:37;101479.50;;;10.66;41.33
36380;BME280;22411;53.016;18.632;2024-03-07T10:38:02;101478.16;;;11.07;41.16
36380;BME280;22411;53.016;18.632;2024-03-07T10:40:33;101474.19;;;11.47;39.80
36380;BME280;22411;53.016;18.632;2024-03-07T10:43:01;101480.47;;;11.73;39.19
36380;BME280;22411;53.016;18.632;2024-03-07T10:45:42;101477.50;;;11.95;37.95
36380;BME280;22411;53.016;18.632;2024-03-07T10:48:11;101476.84;;;11.91;38.59
36380;BME280;22411;53.016;18.632;2024-03-07T10:54:05;101484.56;;;12.93;35.05
36380;BME280;22411;53.016;18.632;2024-03-07T10:59:26;101482.56;;;12.55;36.21
36380;BME280;22411;53.016;18.632;2024-03-07T11:04:47;101482.47;;;12.71;35.46
36380;BME280;22411;53.016;18.632;2024-03-07T11:07:14;101484.50;;;13.21;36.28
36380;BME280;22411;53.016;18.632;2024-03-07T11:09:40;101475.31;;;13.82;35.25
36380;BME280;22411;53.016;18.632;2024-03-07T11:12:08;101476.91;;;13.58;35.68
36380;BME280;22411;53.016;18.632;2024-03-07T11:14:36;101475.41;;;14.32;34.90
36380;BME280;22411;53.016;18.632;2024-03-07T11:17:03;101470.09;;;14.21;34.47
36380;BME280;22411;53.016;18.632;2024-03-07T11:19:31;101465.56;;;16.16;31.45
36380;BME280;22411;53.016;18.632;2024-03-07T11:22:02;101468.69;;;19.44;28.09
36380;BME280;22411;53.016;18.632;2024-03-07T11:24:39;101477.78;;;22.32;24.67
36380;BME280;22411;53.016;18.632;2024-03-07T11:27:09;101473.88;;;24.09;22.03
36380;BME280;22411;53.016;18.632;2024-03-07T11:29:46;101475.47;;;24.96;21.03
36380;BME280;22411;53.016;18.632;2024-03-07T11:32:14;101473.41;;;26.34;20.17
36380;BME280;22411;53.016;18.632;2024-03-07T11:34:44;101475.13;;;26.57;19.60
36380;BME280;22411;53.016;18.632;2024-03-07T11:37:42;101477.44;;;27.18;19.20
36380;BME280;22411;53.016;18.632;2024-03-07T11:42:47;101466.13;;;28.21;18.06
36380;BME280;22411;53.016;18.632;2024-03-07T11:45:14;101463.91;;;28.31;17.82
36380;BME280;22411;53.016;18.632;2024-03-07T11:47:55;101463.94;;;28.99;17.42
36380;BME280;22411;53.016;18.632;2024-03-07T11:50:32;101466.34;;;30.20;17.05
36380;BME280;22411;53.016;18.632;2024-03-07T11:53:01;101460.50;;;31.13;15.51
36380;BME280;22411;53.016;18.632;2024-03-07T11:55:27;101454.97;;;31.08;15.70
36380;BME280;22411;53.016;18.632;2024-03-07T11:58:09;101452.38;;;31.26;16.02
36380;BME280;22411;53.016;18.632;2024-03-07T12:00:39;101459.03;;;31.42;15.25
36380;BME280;22411;53.016;18.632;2024-03-07T12:03:09;101452.34;;;30.25;15.94
36380;BME280;22411;53.016;18.632;2024-03-07T12:05:41;101441.72;;;32.06;14.86
36380;BME280;22411;53.016;18.632;2024-03-07T12:08:07;101445.22;;;32.85;14.43
36380;BME280;22411;53.016;18.632;2024-03-07T12:10:36;101445.28;;;32.78;14.16
36380;BME280;22411;53.016;18.632;2024-03-07T12:13:03;101439.00;;;33.62;13.80
36380;BME280;22411;53.016;18.632;2024-03-07T12:15:30;101434.59;;;32.90;14.36
36380;BME280;22411;53.016;18.632;2024-03-07T12:17:56;101432.59;;;30.70;15.81
36380;BME280;22411;53.016;18.632;2024-03-07T12:20:23;101436.78;;;29.95;15.17
36380;BME280;22411;53.016;18.632;2024-03-07T12:23:00;101422.69;;;26.87;18.13
36380;BME280;22411;53.016;18.632;2024-03-07T12:25:32;101415.34;;;26.68;17.99
36380;BME280;22411;53.016;18.632;2024-03-07T12:28:10;101416.97;;;27.61;17.27
36380;BME280;22411;53.016;18.632;2024-03-07T12:33:12;101407.25;;;30.73;15.58
36380;BME280;22411;53.016;18.632;2024-03-07T12:35:43;101407.06;;;31.24;15.07
36380;BME280;22411;53.016;18.632;2024-03-07T12:38:10;101410.88;;;31.60;14.91
36380;BME280;22411;53.016;18.632;2024-03-07T12:40:42;101415.25;;;31.55;15.02
36380;BME280;22411;53.016;18.632;2024-03-07T12:43:18;101418.47;;;32.00;14.71
36380;BME280;22411;53.016;18.632;2024-03-07T12:45:51;101416.31;;;32.69;13.90
36380;BME280;22411;53.016;18.632;2024-03-07T12:48:18;101412.69;;;31.16;14.81
36380;BME280;22411;53.016;18.632;2024-03-07T12:50:52;101403.44;;;30.17;15.01
36380;BME280;22411;53.016;18.632;2024-03-07T12:53:22;101408.81;;;30.49;14.94
36380;BME280;22411;53.016;18.632;2024-03-07T12:55:48;101401.31;;;31.28;14.30